createdAt,value
2023-04-02T00:01:07.189Z,95810.84
2023-04-02T00:04:26.538Z,95823.06
2023-04-02T00:07:30.747Z,95822.22
2023-04-02T00:10:00.866Z,95824.59
2023-04-02T00:12:29.120Z,95822.09
2023-04-02T00:15:03.670Z,95822.22
2023-04-02T00:17:31.868Z,95829.25
2023-04-02T00:20:20.066Z,95828.31
2023-04-02T00:22:50.393Z,95821.63
2023-04-02T00:25:20.431Z,95830.22
2023-04-02T00:27:53.611Z,95835.72
2023-04-02T00:30:48.035Z,95840.97
2023-04-02T00:33:19.496Z,95837.28
2023-04-02T00:35:49.373Z,95836.91
2023-04-02T00:38:28.940Z,95842.16
2023-04-02T00:41:08.965Z,95850.75
2023-04-02T00:43:39.653Z,95849.19
2023-04-02T00:46:14.236Z,95842.63
2023-04-02T00:48:50.129Z,95847.28
2023-04-02T00:51:24.973Z,95848.00
2023-04-02T00:53:55.968Z,95850.75
2023-04-02T00:56:30.367Z,95842.63
2023-04-02T00:58:59.269Z,95843.56
2023-04-02T01:01:35.802Z,95848.63
2023-04-02T01:04:08.508Z,95849.44
2023-04-02T01:06:39.080Z,95859.69
2023-04-02T01:09:16.691Z,95859.69
2023-04-02T01:12:26.505Z,95859.59
2023-04-02T01:15:07.570Z,95858.88
2023-04-02T01:17:50.284Z,95860.53
2023-04-02T01:21:01.997Z,95860.53
2023-04-02T01:23:36.712Z,95864.13
2023-04-02T01:26:36.111Z,95855.88
2023-04-02T01:29:28.714Z,95862.81
2023-04-02T01:32:01.482Z,95862.69
2023-04-02T01:34:30.997Z,95866.66
2023-04-02T01:37:10.382Z,95859.34
2023-04-02T01:39:53.028Z,95867.22
2023-04-02T01:42:29.740Z,95869.50
2023-04-02T01:45:14.505Z,95867.94
2023-04-02T01:47:44.989Z,95873.31
2023-04-02T01:50:25.435Z,95872.47
2023-04-02T01:53:06.199Z,95877.53
2023-04-02T01:55:42.723Z,95879.19
2023-04-02T01:58:12.582Z,95883.81
2023-04-02T02:00:47.586Z,95885.41
2023-04-02T02:03:17.602Z,95879.44
2023-04-02T02:05:46.533Z,95885.28
2023-04-02T02:08:28.827Z,95887.06
2023-04-02T02:10:57.656Z,95891.84
2023-04-02T02:13:25.844Z,95882.41
2023-04-02T02:16:18.964Z,95888.59
2023-04-02T02:18:51.755Z,95892.56
2023-04-02T02:21:30.648Z,95893.75
2023-04-02T02:23:58.881Z,95892.69
2023-04-02T02:26:49.968Z,95895.41
2023-04-02T02:29:36.188Z,95897.94
2023-04-02T02:32:16.561Z,95900.44
2023-04-02T02:34:49.731Z,95899.59
2023-04-02T02:37:24.645Z,95907.25
2023-04-02T02:39:56.247Z,95906.78
2023-04-02T02:42:29.104Z,95902.47
2023-04-02T02:44:58.483Z,95904.63
2023-04-02T02:47:29.817Z,95908.09
2023-04-02T02:50:04.810Z,95906.66
2023-04-02T02:52:38.238Z,95907.47
2023-04-02T02:55:22.477Z,95904.75
2023-04-02T02:58:01.508Z,95917.88
2023-04-02T03:00:35.845Z,95920.41
2023-04-02T03:03:10.773Z,95917.63
2023-04-02T03:06:02.269Z,95917.88
2023-04-02T03:08:38.120Z,95923.97
2023-04-02T03:11:13.520Z,95927.66
2023-04-02T03:13:47.368Z,95930.09
2023-04-02T03:16:26.966Z,95934.25
2023-04-02T03:19:27.512Z,95935.34
2023-04-02T03:22:02.970Z,95941.63
2023-04-02T03:24:38.852Z,95939.88
2023-04-02T03:27:19.374Z,95936.28
2023-04-02T03:30:26.486Z,95940.81
2023-04-02T03:33:18.417Z,95940.69
2023-04-02T03:35:56.296Z,95943.44
2023-04-02T03:38:34.517Z,95948.69
2023-04-02T03:41:12.478Z,95958.25
2023-04-02T03:43:55.813Z,95954.91
2023-04-02T03:46:28.285Z,95953.94
2023-04-02T03:49:00.848Z,95963.88
2023-04-02T03:51:37.619Z,95954.19
2023-04-02T03:54:19.182Z,95964.69
2023-04-02T03:56:47.790Z,95969.84
2023-04-02T03:59:31.953Z,95967.31
2023-04-02T04:02:07.337Z,95973.16
2023-04-02T04:04:41.003Z,95972.59
2023-04-02T04:07:20.580Z,95970.69
2023-04-02T04:09:53.324Z,95972.34
2023-04-02T04:12:29.825Z,95974.03
2023-04-02T04:15:07.209Z,95982.84
2023-04-02T04:17:54.339Z,95991.56
2023-04-02T04:20:35.515Z,95987.63
2023-04-02T04:23:19.861Z,95995.25
2023-04-02T04:25:49.479Z,95993.59
2023-04-02T04:28:26.257Z,95999.59
2023-04-02T04:31:18.100Z,95991.69
2023-04-02T04:33:54.846Z,96012.72
2023-04-02T04:36:31.318Z,96004.84
2023-04-02T04:39:29.555Z,96008.31
2023-04-02T04:42:06.543Z,96014.38
2023-04-02T04:44:54.512Z,96017.00
2023-04-02T04:47:27.454Z,96018.81
2023-04-02T04:50:01.052Z,96030.78
2023-04-02T04:52:39.449Z,96034.47
2023-04-02T04:55:28.464Z,96032.56
2023-04-02T04:58:03.252Z,96032.06
2023-04-02T05:00:43.580Z,96031.22
2023-04-02T05:03:29.939Z,96039.00
2023-04-02T05:06:23.898Z,96044.00
2023-04-02T05:09:00.333Z,96035.41
2023-04-02T05:11:35.853Z,96037.94
2023-04-02T05:14:10.320Z,96047.63
2023-04-02T05:16:57.399Z,96046.66
2023-04-02T05:19:33.172Z,96049.50
2023-04-02T05:22:13.356Z,96053.81
2023-04-02T05:24:57.883Z,96056.44
2023-04-02T05:27:38.070Z,96064.31
2023-04-02T05:30:20.237Z,96065.16
2023-04-02T05:32:57.603Z,96064.44
2023-04-02T05:35:32.333Z,96063.38
2023-04-02T05:38:02.494Z,96070.06
2023-04-02T05:40:42.743Z,96068.16
2023-04-02T05:43:20.600Z,96073.41
2023-04-02T05:45:55.404Z,96068.78
2023-04-02T05:48:30.445Z,96071.28
2023-04-02T05:51:00.217Z,96072.88
2023-04-02T05:53:56.540Z,96077.78
2023-04-02T05:56:42.380Z,96082.06
2023-04-02T05:59:17.519Z,96078.47
2023-04-02T06:01:50.420Z,96088.97
2023-04-02T06:04:31.840Z,96088.28
2023-04-02T06:07:09.683Z,96093.06
2023-04-02T06:09:46.080Z,96094.13
2023-04-02T06:12:23.791Z,96098.09
2023-04-02T06:14:56.615Z,96098.94
2023-04-02T06:17:48.654Z,96115.56
2023-04-02T06:20:18.892Z,96108.16
2023-04-02T06:22:52.496Z,96121.28
2023-04-02T06:25:25.356Z,96117.69
2023-04-02T06:28:16.344Z,96126.22
2023-04-02T06:30:55.052Z,96116.31
2023-04-02T06:33:23.433Z,96125.63
2023-04-02T06:35:53.332Z,96134.34
2023-04-02T06:38:32.380Z,96135.78
2023-04-02T06:41:06.078Z,96140.00
2023-04-02T06:44:01.129Z,96132.81
2023-04-02T06:46:47.156Z,96142.28
2023-04-02T06:49:23.953Z,96144.56
2023-04-02T06:52:07.846Z,96144.34
2023-04-02T06:54:36.322Z,96153.66
2023-04-02T06:57:13.663Z,96156.75
2023-04-02T06:59:45.464Z,96149.84
2023-04-02T07:02:30.191Z,96163.47
2023-04-02T07:05:10.381Z,96169.47
2023-04-02T07:07:54.606Z,96176.56
2023-04-02T07:10:22.543Z,96174.66
2023-04-02T07:12:50.613Z,96183.97
2023-04-02T07:15:24.060Z,96194.50
2023-04-02T07:17:57.177Z,96191.50
2023-04-02T07:20:30.523Z,96196.56
2023-04-02T07:23:01.932Z,96200.13
2023-04-02T07:25:30.301Z,96199.88
2023-04-02T07:27:58.291Z,96199.31
2023-04-02T07:30:26.157Z,96207.06
2023-04-02T07:32:55.742Z,96210.19
2023-04-02T07:35:23.756Z,96215.09
2023-04-02T07:37:52.886Z,96216.53
2023-04-02T07:40:24.234Z,96218.97
2023-04-02T07:42:52.107Z,96221.22
2023-04-02T07:45:20.255Z,96221.81
2023-04-02T07:47:48.123Z,96221.72
2023-04-02T07:50:17.929Z,96231.91
2023-04-02T07:52:46.285Z,96230.91
2023-04-02T07:55:16.153Z,96240.50
2023-04-02T07:57:49.901Z,96239.22
2023-04-02T08:00:19.131Z,96243.84
2023-04-02T08:02:47.379Z,96254.19
2023-04-02T08:05:17.930Z,96247.59
2023-04-02T08:07:46.394Z,96248.44
2023-04-02T08:10:14.315Z,96255.03
2023-04-02T08:12:42.371Z,96257.41
2023-04-02T08:15:15.137Z,96258.41
2023-04-02T08:17:43.437Z,96259.09
2023-04-02T08:20:18.128Z,96273.25
2023-04-02T08:22:46.358Z,96274.78
2023-04-02T08:25:14.615Z,96271.78
2023-04-02T08:27:43.335Z,96281.97
2023-04-02T08:30:13.622Z,96283.41
2023-04-02T08:32:42.021Z,96283.78
2023-04-02T08:35:11.631Z,96289.38
2023-04-02T08:37:41.337Z,96287.47
2023-04-02T08:40:22.093Z,96292.97
2023-04-02T08:43:02.555Z,96299.44
2023-04-02T08:45:40.686Z,96302.44
2023-04-02T08:48:11.716Z,96301.00
2023-04-02T08:50:41.869Z,96303.84
2023-04-02T08:53:16.332Z,96306.50
2023-04-02T08:55:52.575Z,96311.41
2023-04-02T08:58:30.584Z,96313.44
2023-04-02T09:01:04.316Z,96317.03
2023-04-02T09:03:37.689Z,96319.66
2023-04-02T09:06:09.943Z,96323.13
2023-04-02T09:08:40.605Z,96326.63
2023-04-02T09:11:12.957Z,96325.03
2023-04-02T09:13:47.789Z,96326.13
2023-04-02T09:16:17.749Z,96336.94
2023-04-02T09:18:47.148Z,96333.94
2023-04-02T09:21:31.532Z,96329.41
2023-04-02T09:24:01.550Z,96335.50
2023-04-02T09:26:32.578Z,96343.78
2023-04-02T09:29:10.965Z,96346.06
2023-04-02T09:31:43.752Z,96345.72
2023-04-02T09:34:30.687Z,96351.84
2023-04-02T09:37:08.691Z,96356.50
2023-04-02T09:39:37.984Z,96360.31
2023-04-02T09:42:09.764Z,96365.75
2023-04-02T09:44:37.910Z,96377.13
2023-04-02T09:47:09.446Z,96370.66
2023-04-02T09:49:39.623Z,96375.78
2023-04-02T09:52:21.062Z,96376.66
2023-04-02T09:55:18.677Z,96377.22
2023-04-02T09:57:48.367Z,96386.84
2023-04-02T10:00:31.254Z,96388.03
2023-04-02T10:03:06.921Z,96390.41
2023-04-02T10:08:18.050Z,96399.53
2023-04-02T10:10:51.038Z,96400.13
2023-04-02T10:13:24.284Z,96401.22
2023-04-02T10:15:56.680Z,96400.03
2023-04-02T10:18:38.692Z,96402.06
2023-04-02T10:21:07.605Z,96408.78
2023-04-02T10:23:35.989Z,96410.59
2023-04-02T10:26:20.245Z,96419.19
2023-04-02T10:29:06.383Z,96411.53
2023-04-02T10:31:41.550Z,96417.78
2023-04-02T10:34:17.025Z,96418.59
2023-04-02T10:36:51.959Z,96422.69
2023-04-02T10:39:23.844Z,96427.81
2023-04-02T10:41:58.224Z,96432.00
2023-04-02T10:44:43.725Z,96432.16
2023-04-02T10:47:31.109Z,96434.44
2023-04-02T10:50:12.590Z,96434.06
2023-04-02T10:52:47.144Z,96436.81
2023-04-02T10:55:19.154Z,96445.56
2023-04-02T10:57:48.693Z,96451.56
2023-04-02T11:00:24.084Z,96450.38
2023-04-02T11:02:56.187Z,96447.75
2023-04-02T11:05:32.316Z,96450.84
2023-04-02T11:08:08.052Z,96456.97
2023-04-02T11:10:40.803Z,96456.13
2023-04-02T11:13:19.449Z,96460.22
2023-04-02T11:15:47.423Z,96468.13
2023-04-02T11:18:24.989Z,96465.03
2023-04-02T11:20:59.217Z,96464.75
2023-04-02T11:23:32.980Z,96473.66
2023-04-02T11:26:42.726Z,96472.69
2023-04-02T11:29:18.351Z,96477.50
2023-04-02T11:31:47.246Z,96476.41
2023-04-02T11:35:05.107Z,96477.25
2023-04-02T11:37:38.277Z,96481.69
2023-04-02T11:40:44.683Z,96485.88
2023-04-02T11:43:50.344Z,96486.09
2023-04-02T11:46:50.735Z,96491.53
2023-04-02T11:49:57.242Z,96488.63
2023-04-02T11:52:28.431Z,96491.38
2023-04-02T11:54:59.528Z,96492.13
2023-04-02T11:57:46.289Z,96494.28
2023-04-02T12:00:32.594Z,96498.13
2023-04-02T12:03:33.038Z,96509.16
2023-04-02T12:06:07.357Z,96505.41
2023-04-02T12:08:57.208Z,96507.59
2023-04-02T12:11:33.826Z,96506.59
2023-04-02T12:14:03.130Z,96513.34
2023-04-02T12:16:35.542Z,96511.53
2023-04-02T12:19:10.472Z,96515.47
2023-04-02T12:21:39.074Z,96513.69
2023-04-02T12:24:07.783Z,96514.16
2023-04-02T12:26:38.431Z,96507.16
2023-04-02T12:29:17.294Z,96511.59
2023-04-02T12:31:45.923Z,96510.50
2023-04-02T12:34:17.735Z,96519.00
2023-04-02T12:37:02.634Z,96523.91
2023-04-02T12:39:31.670Z,96526.56
2023-04-02T12:41:59.625Z,96520.56
2023-04-02T12:44:29.761Z,96527.41
2023-04-02T12:46:59.427Z,96522.69
2023-04-02T12:49:35.377Z,96529.88
2023-04-02T12:52:06.226Z,96531.25
2023-04-02T12:54:38.211Z,96536.84
2023-04-02T12:57:33.921Z,96531.78
2023-04-02T13:00:06.414Z,96531.06
2023-04-02T13:02:45.031Z,96535.75
2023-04-02T13:05:14.593Z,96540.19
2023-04-02T13:07:48.971Z,96537.81
2023-04-02T13:10:25.433Z,96542.69
2023-04-02T13:12:56.656Z,96545.56
2023-04-02T13:15:28.539Z,96548.00
2023-04-02T13:18:21.297Z,96548.31
2023-04-02T13:20:58.323Z,96548.06
2023-04-02T13:23:34.226Z,96548.94
2023-04-02T13:26:05.413Z,96554.47
2023-04-02T13:28:33.394Z,96548.59
2023-04-02T13:31:01.349Z,96556.28
2023-04-02T13:33:29.231Z,96552.09
2023-04-02T13:35:58.503Z,96553.06
2023-04-02T13:38:26.866Z,96551.97
2023-04-02T13:40:55.040Z,96560.00
2023-04-02T13:43:23.040Z,96551.50
2023-04-02T13:45:54.149Z,96557.25
2023-04-02T13:48:26.078Z,96567.81
2023-04-02T13:50:54.241Z,96568.81
2023-04-02T13:53:30.025Z,96568.91
2023-04-02T13:55:58.189Z,96569.88
2023-04-02T13:58:44.826Z,96576.97
2023-04-02T14:01:14.462Z,96577.06
2023-04-02T14:03:48.262Z,96583.56
2023-04-02T14:06:23.193Z,96591.97
2023-04-02T14:09:04.230Z,96593.72
2023-04-02T14:11:45.543Z,96591.97
2023-04-02T14:14:39.228Z,96596.97
2023-04-02T14:17:18.588Z,96605.13
2023-04-02T14:20:00.862Z,96606.69
2023-04-02T14:22:42.894Z,96607.16
2023-04-02T14:25:21.470Z,96615.09
2023-04-02T14:27:59.626Z,96616.13
2023-04-02T14:30:39.640Z,96628.81
2023-04-02T14:33:13.954Z,96629.38
2023-04-02T14:35:46.337Z,96630.78
2023-04-02T14:38:21.732Z,96636.63
2023-04-02T14:40:56.891Z,96633.22
2023-04-02T14:43:27.711Z,96639.38
2023-04-02T14:46:06.121Z,96640.22
2023-04-02T14:48:50.432Z,96649.84
2023-04-02T14:51:26.404Z,96645.00
2023-04-02T14:54:02.962Z,96646.81
2023-04-02T14:56:37.485Z,96648.41
2023-04-02T14:59:24.724Z,96652.03
2023-04-02T15:01:59.113Z,96651.06
2023-04-02T15:04:32.004Z,96657.59
2023-04-02T15:07:05.428Z,96652.53
2023-04-02T15:09:46.178Z,96653.16
2023-04-02T15:12:32.135Z,96653.59
2023-04-02T15:15:26.821Z,96664.41
2023-04-02T15:18:03.131Z,96660.38
2023-04-02T15:20:40.745Z,96660.75
2023-04-02T15:23:17.351Z,96663.84
2023-04-02T15:25:50.382Z,96668.06
2023-04-02T15:28:31.222Z,96678.81
2023-04-02T15:31:04.578Z,96673.31
2023-04-02T15:33:41.551Z,96675.31
2023-04-02T15:36:42.694Z,96686.91
2023-04-02T15:39:42.154Z,96687.56
2023-04-02T15:42:17.371Z,96696.19
2023-04-02T15:45:16.561Z,96700.63
2023-04-02T15:48:07.811Z,96702.44
2023-04-02T15:51:03.619Z,96702.63
2023-04-02T15:53:45.954Z,96707.28
2023-04-02T15:56:40.327Z,96718.84
2023-04-02T15:59:45.246Z,96722.34
2023-04-02T16:02:55.128Z,96720.00
2023-04-02T16:05:34.511Z,96723.19
2023-04-02T16:08:19.833Z,96722.53
2023-04-02T16:10:47.977Z,96728.09
2023-04-02T16:13:20.614Z,96738.00
2023-04-02T16:15:54.965Z,96748.31
2023-04-02T16:18:38.542Z,96747.13
2023-04-02T16:21:07.994Z,96742.28
2023-04-02T16:23:45.595Z,96744.28
2023-04-02T16:26:42.749Z,96759.56
2023-04-02T16:29:23.986Z,96750.66
2023-04-02T16:31:59.575Z,96752.69
2023-04-02T16:34:38.290Z,96760.59
2023-04-02T16:37:21.003Z,96760.59
2023-04-02T16:39:57.954Z,96770.91
2023-04-02T16:42:38.020Z,96769.06
2023-04-02T16:45:25.196Z,96784.94
2023-04-02T16:48:08.371Z,96783.16
2023-04-02T16:50:53.148Z,96783.91
2023-04-02T16:53:31.911Z,96792.94
2023-04-02T16:56:30.038Z,96800.41
2023-04-02T16:59:12.952Z,96797.19
2023-04-02T17:01:47.496Z,96803.63
2023-04-02T17:04:32.210Z,96809.72
2023-04-02T17:07:11.443Z,96807.81
2023-04-02T17:09:50.030Z,96818.81
2023-04-02T17:12:22.052Z,96821.72
2023-04-02T17:14:54.651Z,96813.47
2023-04-02T17:17:24.171Z,96830.94
2023-04-02T17:19:57.759Z,96831.25
2023-04-02T17:22:27.689Z,96839.00
2023-04-02T17:24:58.325Z,96839.59
2023-04-02T17:27:30.323Z,96853.59
2023-04-02T17:30:04.918Z,96854.53
2023-04-02T17:32:34.741Z,96856.50
2023-04-02T17:35:17.748Z,96861.03
2023-04-02T17:37:52.898Z,96856.13
2023-04-02T17:40:27.089Z,96868.44
2023-04-02T17:43:04.137Z,96875.84
2023-04-02T17:45:39.372Z,96877.16
2023-04-02T17:48:16.296Z,96878.28
2023-04-02T17:50:59.868Z,96884.97
2023-04-02T17:53:40.729Z,96890.09
2023-04-02T17:56:22.076Z,96893.22
2023-04-02T17:59:23.545Z,96893.13
2023-04-02T18:02:00.967Z,96902.69
2023-04-02T18:04:39.783Z,96915.53
2023-04-02T18:07:24.327Z,96924.38
2023-04-02T18:10:03.170Z,96928.13
2023-04-02T18:12:47.291Z,96933.38
2023-04-02T18:15:53.565Z,96939.25
2023-04-02T18:18:45.653Z,96949.94
2023-04-02T18:21:21.434Z,96950.75
2023-04-02T18:24:03.828Z,96961.94
2023-04-02T18:26:45.330Z,96959.56
2023-04-02T18:29:24.474Z,96964.31
2023-04-02T18:32:04.215Z,96975.84
2023-04-02T18:34:48.089Z,96984.25
2023-04-02T18:37:38.769Z,96981.63
2023-04-02T18:40:27.515Z,96989.84
2023-04-02T18:43:03.363Z,96987.53
2023-04-02T18:45:44.484Z,96997.22
2023-04-02T18:48:41.142Z,97007.09
2023-04-02T18:51:35.401Z,97007.69
2023-04-02T18:54:16.880Z,97004.47
2023-04-02T18:56:44.946Z,97012.34
2023-04-02T18:59:33.342Z,97018.53
2023-04-02T19:02:04.382Z,97018.53
2023-04-02T19:04:35.882Z,97029.19
2023-04-02T19:07:06.403Z,97039.25
2023-04-02T19:09:37.735Z,97045.59
2023-04-02T19:12:18.537Z,97056.09
2023-04-02T19:15:00.520Z,97059.16
2023-04-02T19:17:36.949Z,97059.97
2023-04-02T19:20:15.101Z,97072.94
2023-04-02T19:22:53.603Z,97075.03
2023-04-02T19:25:39.499Z,97081.28
2023-04-02T19:28:13.464Z,97082.44
2023-04-02T19:30:58.992Z,97090.03
2023-04-02T19:33:43.613Z,97097.44
2023-04-02T19:36:51.422Z,97105.22
2023-04-02T19:39:46.543Z,97116.56
2023-04-02T19:42:31.466Z,97127.97
2023-04-02T19:44:59.947Z,97121.72
2023-04-02T19:47:33.258Z,97131.19
2023-04-02T19:50:02.696Z,97135.84
2023-04-02T19:52:38.169Z,97134.38
2023-04-02T19:55:06.693Z,97132.59
2023-04-02T19:57:34.706Z,97135.38
2023-04-02T20:00:22.115Z,97144.75
2023-04-02T20:02:51.892Z,97151.34
2023-04-02T20:05:20.150Z,97158.03
2023-04-02T20:07:48.124Z,97152.34
2023-04-02T20:10:16.428Z,97158.16
2023-04-02T20:12:50.585Z,97163.56
2023-04-02T20:15:19.880Z,97165.72
2023-04-02T20:17:47.921Z,97161.09
2023-04-02T20:20:17.694Z,97176.88
2023-04-02T20:22:55.174Z,97172.28
2023-04-02T20:25:26.816Z,97176.75
2023-04-02T20:27:54.894Z,97182.34
2023-04-02T20:30:22.970Z,97191.06
2023-04-02T20:32:51.078Z,97193.66
2023-04-02T20:35:20.780Z,97198.06
2023-04-02T20:37:48.919Z,97202.25
2023-04-02T20:40:17.065Z,97216.19
2023-04-02T20:42:45.052Z,97207.56
2023-04-02T20:45:13.166Z,97216.25
2023-04-02T20:47:51.617Z,97211.09
2023-04-02T20:50:24.556Z,97215.97
2023-04-02T20:52:52.833Z,97216.13
2023-04-02T20:55:21.654Z,97216.03
2023-04-02T20:57:49.720Z,97228.63
2023-04-02T21:00:18.504Z,97222.97
2023-04-02T21:02:46.781Z,97226.84
2023-04-02T21:05:15.021Z,97227.59
2023-04-02T21:07:44.382Z,97241.63
2023-04-02T21:10:19.270Z,97228.09
2023-04-02T21:12:56.883Z,97237.06
2023-04-02T21:15:25.349Z,97240.00
2023-04-02T21:17:53.759Z,97239.09
2023-04-02T21:20:22.212Z,97246.84
2023-04-02T21:23:10.305Z,97243.13
2023-04-02T21:25:38.839Z,97247.00
2023-04-02T21:28:08.353Z,97246.16
2023-04-02T21:30:36.648Z,97253.88
2023-04-02T21:33:04.777Z,97252.28
2023-04-02T21:35:33.075Z,97250.13
2023-04-02T21:38:14.753Z,97253.03
2023-04-02T21:40:51.706Z,97263.06
2023-04-02T21:43:19.716Z,97266.22
2023-04-02T21:45:47.761Z,97271.16
2023-04-02T21:48:19.654Z,97264.88
2023-04-02T21:51:07.651Z,97267.06
2023-04-02T21:53:37.400Z,97269.28
2023-04-02T21:56:07.172Z,97273.56
2023-04-02T21:58:35.730Z,97272.16
2023-04-02T22:01:07.069Z,97271.03
2023-04-02T22:03:37.272Z,97274.69
2023-04-02T22:06:08.572Z,97271.09
2023-04-02T22:08:39.445Z,97281.28
2023-04-02T22:11:08.951Z,97280.91
2023-04-02T22:13:37.230Z,97284.31
2023-04-02T22:16:07.416Z,97278.22
2023-04-02T22:18:36.108Z,97278.03
2023-04-02T22:21:04.272Z,97287.59
2023-04-02T22:23:33.119Z,97282.16
2023-04-02T22:26:03.615Z,97277.22
2023-04-02T22:28:31.795Z,97276.28
2023-04-02T22:31:06.551Z,97271.44
2023-04-02T22:33:35.640Z,97278.50
2023-04-02T22:36:04.838Z,97284.78
2023-04-02T22:38:33.472Z,97281.84
2023-04-02T22:41:08.021Z,97284.28
2023-04-02T22:43:36.489Z,97283.59
2023-04-02T22:46:05.049Z,97285.31
2023-04-02T22:48:34.832Z,97279.47
2023-04-02T22:51:03.358Z,97281.94
2023-04-02T22:53:31.321Z,97274.69
2023-04-02T22:56:03.234Z,97275.19
2023-04-02T22:58:32.565Z,97277.47
2023-04-02T23:01:04.631Z,97272.28
2023-04-02T23:03:32.606Z,97271.44
2023-04-02T23:06:01.742Z,97278.34
2023-04-02T23:08:29.933Z,97272.81
2023-04-02T23:11:02.684Z,97276.41
2023-04-02T23:13:32.976Z,97272.41
2023-04-02T23:16:02.341Z,97279.44
2023-04-02T23:18:30.564Z,97272.59
2023-04-02T23:20:58.517Z,97271.41
2023-04-02T23:23:26.839Z,97273.06
2023-04-02T23:26:04.663Z,97266.72
2023-04-02T23:28:34.352Z,97268.84
2023-04-02T23:31:03.296Z,97264.41
2023-04-02T23:33:31.475Z,97267.22
2023-04-02T23:35:59.706Z,97268.00
2023-04-02T23:38:27.977Z,97259.72
2023-04-02T23:40:55.937Z,97269.16
2023-04-02T23:43:23.842Z,97272.13
2023-04-02T23:45:53.100Z,97273.09
2023-04-02T23:48:21.162Z,97277.16
2023-04-02T23:50:49.133Z,97281.66
2023-04-02T23:53:18.717Z,97273.59
2023-04-02T23:55:46.934Z,97283.88
2023-04-02T23:58:14.989Z,97275.94
